• Join FlightAware (Why Join?)
  • Login
  • US Flag 
08:52AM EDT


 

Airport Tracker/Info


-or-


 

Live Flight TrackerFlight Track Log ✈ SKW2988 ✈ 01-May-2013 ✈ KPHX - KABQ

Flight Track Log - Related Links

Times and Time Zones

All times are in EDT time to prevent confusion due to time zone crossing. See the SKW2988 flight status page for this flight to view local times or setup timezone preferences in your user account.

Time Position Orientation Groundspeed Altitude Reporting Facility
EDT Latitude Longitude Course Direction KTS MPH feet Rate Location/Type
12:55AM 33.4333 -112.0833 69° East 196 226 3,000  Level Phoenix TRACON
12:56AM 33.4392 -112.1222 280° West 202 232 4,900 1,860 Climbing Albuquerque Center
12:57AM 33.4950 -112.1244 358° North 259 298 6,400 2,040 Climbing Albuquerque Center
12:58AM 33.5536 -112.0608 42° Northeast 285 328 9,100 2,280 Climbing Albuquerque Center
12:59AM 33.6019 -111.9878 52° Northeast 295 339 11,100 1,680 Climbing Albuquerque Center
01:00AM 33.6549 -111.3565 69° East  Level FlightAware Approximate
01:00AM 33.6136 -111.8836 82° East 318 366 12,600  Level Albuquerque Center
01:01AM 33.6269 -111.7722 82° East 338 389 14,500 1,740 Climbing Albuquerque Center
01:02AM 33.6408 -111.6589 82° East 347 399 16,200 1,620 Climbing Albuquerque Center
01:03AM 33.6569 -111.5192 82° East 358 412 17,800 1,320 Climbing Albuquerque Center
01:04AM 33.6728 -111.3967 81° East 372 428 19,000 1,200 Climbing Albuquerque Center
01:05AM 33.6883 -111.2708 82° East 383 441 20,300 1,320 Climbing Albuquerque Center
01:06AM 33.7300 -111.1539 67° East 387 445 21,700 1,200 Climbing Albuquerque Center
01:07AM 33.7706 -111.0364 67° East 384 442 22,800 1,020 Climbing Albuquerque Center
01:08AM 33.8133 -110.9153 67° East 391 450 23,800 900 Climbing Albuquerque Center
01:09AM 33.8572 -110.7928 67° East 397 457 24,700 780 Climbing Albuquerque Center
01:10AM 33.9000 -110.6675 68° East 404 465 25,500 840 Climbing Albuquerque Center
01:11AM 33.9467 -110.5394 66° East 413 475 26,400 720 Climbing Albuquerque Center
01:12AM 33.9911 -110.4083 68° East 420 483 27,000 240 Climbing Albuquerque Center
01:13AM 34.0394 -110.2681 67° East 434 499 27,000  Level Albuquerque Center
01:14AM 34.0889 -110.1275 67° East 451 519 27,000  Level Albuquerque Center
01:15AM 34.1439 -109.9731 67° East 456 525 27,000  Level Albuquerque Center
01:16AM 34.1889 -109.8381 68° East 455 524 27,000  Level Albuquerque Center
01:17AM 34.2417 -109.6842 67° East 448 516 27,000  Level Albuquerque Center
01:18AM 34.2872 -109.5497 68° East 449 517 27,000  Level Albuquerque Center
01:19AM 34.3325 -109.4186 67° East 447 514 27,000  Level Albuquerque Center
01:20AM 34.3844 -109.2633 68° East 446 513 27,000  Level Albuquerque Center
01:21AM 34.4267 -109.1308 69° East 444 511 27,000  Level Albuquerque Center
01:22AM 34.4447 -108.9847 81° East 455 524 27,000  Level Albuquerque Center
01:23AM 34.4656 -108.8175 81° East 454 522 27,000  Level Albuquerque Center
01:24AM 34.4842 -108.6731 81° East 454 522 27,000  Level Albuquerque Center
01:25AM 34.5019 -108.5322 81° East 449 517 27,000  Level Albuquerque Center
01:26AM 34.5233 -108.3922 79° East 450 518 27,000 -240 Level Albuquerque Center
01:27AM 34.5500 -108.2447 78° East 448 516 26,600 -660 Descending Albuquerque Center
01:28AM 34.5744 -108.0978 79° East 447 514 25,700 -960 Descending Albuquerque Center
01:29AM 34.5981 -107.9569 78° East 435 501 24,700 -1,440 Descending Albuquerque Center
01:30AM 34.6311 -107.7892 76° East 429 494 22,900 -1,800 Descending Albuquerque Center
01:31AM 34.6828 -107.6700 62° Northeast 405 466 21,100 -1,860 Descending Albuquerque Center
01:32AM 34.7333 -107.5533 62° Northeast 395 455 19,200 -1,860 Descending Albuquerque Center
01:33AM 34.7633 -107.4806 63° Northeast 366 421 18,100 -1,500 Descending Albuquerque Center
01:33AM 34.7803 -107.4458 59° Northeast 372 428 17,700 -1,500 Descending Albuquerque Center
01:34AM 34.8072 -107.3742 65° Northeast 343 395 16,600 -1,680 Descending Albuquerque Center
01:34AM 34.8231 -107.3422 59° Northeast 352 405 16,000 -1,920 Descending Albuquerque Center
01:35AM 34.8514 -107.2703 64° Northeast 343 395 14,700 -1,920 Descending Albuquerque Center
01:35AM 34.8683 -107.2375 58° Northeast 348 400 14,100 -1,800 Descending Albuquerque Center
01:36AM 34.8975 -107.1656 64° Northeast 350 403 12,900 -1,800 Descending Albuquerque Center
01:36AM 34.9111 -107.1342 62° Northeast 346 398 12,300 -1,740 Descending Albuquerque Center
01:37AM 34.9428 -107.0558 64° Northeast 336 387 11,000 -1,620 Descending Albuquerque Center
01:37AM 34.9528 -107.0339 61° Northeast 341 392 10,700 -1,320 Descending Albuquerque Center
01:38AM 34.9806 -106.9661 63° Northeast 297 342 9,700 -1,200 Descending Albuquerque Center
01:38AM 34.9897 -106.9450 62° Northeast 317 365 9,500 -1,020 Descending Albuquerque Center
01:39AM 35.0150 -106.8822 64° Northeast 263 303 8,700 -1,020 Descending Albuquerque Center
01:39AM 35.0206 -106.8664 67° East 287 330 8,500 -600 Descending Albuquerque Center
01:40AM 35.0428 -106.8078 65° Northeast 211 243 8,100 -420 Descending Albuquerque Center
01:40AM 35.0436 -106.8000 83° East 247 284 8,100 -600 Level Albuquerque Center
01:41AM 35.0433 -106.7375 90° East 207 238 7,500 -840 Descending Albuquerque Center
01:41AM 35.0444 -106.7286 81° East 225 259 7,300 -1,020 Descending Albuquerque Center
01:42AM 35.0436 -106.6650 91° East 166 191 6,300 -900 Descending Albuquerque Center
01:43AM 35.0444 -106.6197 89° East 164 189 5,500 -780 Descending Albuquerque Center
01:45AM 35.0402 -106.6092 59° Northeast  Level Estimated